Private Wetterstation Sandau
Wetterdaten: Sonntag, 06.01.2013
Datum Zeit Temp. A. Feuchte A. Luftdruck Regen Wind Richtung Richtung Taupunkt Windchill
06.01.2013 00:01 7,1 C 94 % 1028,7 hPa 0,0 l/m 9,0 km/h (2 Bft) W-NW 292 6,2 C 5,4 C
06.01.2013 00:06 7,1 C 94 % 1028,6 hPa 0,5 l/m 5,8 km/h (2 Bft) NW 315 6,2 C 6,2 C
06.01.2013 00:11 7,0 C 94 % 1028,6 hPa 0,0 l/m 6,5 km/h (2 Bft) W-NW 292 6,1 C 5,9 C
06.01.2013 00:16 7,0 C 94 % 1028,7 hPa 0,0 l/m 7,2 km/h (2 Bft) NW 315 6,1 C 5,7 C
06.01.2013 00:21 6,9 C 94 % 1028,5 hPa 0,0 l/m 19,1 km/h (3 Bft) N-NW 337 6,0 C 3,6 C
06.01.2013 00:26 6,9 C 94 % 1028,5 hPa 0,0 l/m 6,8 km/h (2 Bft) W-NW 292 6,0 C 5,7 C
06.01.2013 00:31 6,9 C 94 % 1028,5 hPa 0,0 l/m 1,4 km/h (1 Bft) W-NW 292 6,0 C 6,9 C
06.01.2013 00:36 6,9 C 94 % 1028,6 hPa 0,0 l/m 3,6 km/h (1 Bft) W-NW 292 6,0 C 6,9 C
06.01.2013 00:41 6,9 C 94 % 1028,5 hPa 0,0 l/m 4,0 km/h (1 Bft) W-NW 292 6,0 C 6,9 C
06.01.2013 00:46 6,9 C 94 % 1028,5 hPa 0,0 l/m 2,9 km/h (1 Bft) W-NW 292 6,0 C 6,9 C
06.01.2013 00:51 6,9 C 94 % 1028,4 hPa 0,0 l/m 18,0 km/h (3 Bft) W-NW 292 6,0 C 3,7 C
06.01.2013 00:56 6,9 C 94 % 1028,4 hPa 0,0 l/m 6,1 km/h (2 Bft) W-NW 292 6,0 C 5,9 C
06.01.2013 01:01 6,9 C 94 % 1028,6 hPa 0,0 l/m 10,8 km/h (2 Bft) NW 315 6,0 C 4,8 C
06.01.2013 01:06 6,9 C 94 % 1028,4 hPa 0,0 l/m 6,1 km/h (2 Bft) N-NW 337 6,0 C 5,9 C
06.01.2013 01:11 6,9 C 94 % 1028,3 hPa 0,0 l/m 4,7 km/h (1 Bft) W-NW 292 6,0 C 6,3 C
06.01.2013 01:16 6,9 C 94 % 1028,4 hPa 0,0 l/m 4,0 km/h (1 Bft) NW 315 6,0 C 6,9 C
06.01.2013 01:21 6,8 C 94 % 1028,3 hPa 0,0 l/m 9,4 km/h (2 Bft) NW 315 5,9 C 4,9 C
06.01.2013 01:26 6,8 C 94 % 1028,3 hPa 0,0 l/m 5,0 km/h (1 Bft) W-NW 292 5,9 C 6,1 C
06.01.2013 01:31 6,8 C 94 % 1028,3 hPa 0,0 l/m 9,4 km/h (2 Bft) NW 315 5,9 C 4,9 C
06.01.2013 01:36 6,7 C 94 % 1028,3 hPa 0,0 l/m 15,1 km/h (3 Bft) NW 315 5,8 C 3,8 C
06.01.2013 01:41 6,7 C 94 % 1028,4 hPa 0,0 l/m 7,9 km/h (2 Bft) NW 315 5,8 C 5,2 C
06.01.2013 01:46 6,7 C 94 % 1028,3 hPa 0,0 l/m 9,4 km/h (2 Bft) W 270 5,8 C 4,8 C
06.01.2013 01:51 6,6 C 94 % 1028,3 hPa 0,0 l/m 7,2 km/h (2 Bft) NW 315 5,7 C 5,2 C
06.01.2013 01:56 6,6 C 94 % 1028,2 hPa 0,0 l/m 9,0 km/h (2 Bft) NW 315 5,7 C 4,8 C
06.01.2013 02:01 6,6 C 94 % 1028,2 hPa 0,0 l/m 6,1 km/h (2 Bft) NW 315 5,7 C 5,5 C
06.01.2013 02:06 6,5 C 94 % 1028,3 hPa 0,0 l/m 20,9 km/h (4 Bft) NW 315 5,6 C 2,9 C
06.01.2013 02:11 6,5 C 94 % 1028,0 hPa 0,0 l/m 9,4 km/h (2 Bft) W 270 5,6 C 4,6 C
06.01.2013 02:16 6,5 C 94 % 1028,0 hPa 0,0 l/m 10,8 km/h (2 Bft) W-NW 292 5,6 C 4,3 C
06.01.2013 02:21 6,4 C 93 % 1028,0 hPa 0,0 l/m 5,0 km/h (1 Bft) NW 315 5,4 C 5,7 C
06.01.2013 02:26 6,4 C 93 % 1028,0 hPa 0,0 l/m 8,6 km/h (2 Bft) W-NW 292 5,4 C 4,6 C
06.01.2013 02:31 6,4 C 93 % 1028,0 hPa 0,0 l/m 7,9 km/h (2 Bft) W 270 5,4 C 4,8 C
06.01.2013 02:36 6,4 C 93 % 1028,0 hPa 0,0 l/m 13,0 km/h (3 Bft) NW 315 5,4 C 3,8 C
06.01.2013 02:41 6,4 C 93 % 1027,8 hPa 0,0 l/m 12,2 km/h (2 Bft) NW 315 5,4 C 3,9 C
06.01.2013 02:46 6,3 C 93 % 1027,9 hPa 0,0 l/m 7,9 km/h (2 Bft) NW 315 5,3 C 4,7 C
06.01.2013 02:51 6,3 C 93 % 1027,8 hPa 0,0 l/m 4,7 km/h (1 Bft) NW 315 5,3 C 5,7 C
06.01.2013 02:56 6,3 C 93 % 1027,8 hPa 0,0 l/m 13,3 km/h (3 Bft) NW 315 5,3 C 3,6 C
06.01.2013 03:01 6,3 C 93 % 1027,7 hPa 0,0 l/m 5,8 km/h (2 Bft) W 270 5,3 C 5,3 C
06.01.2013 03:06 6,3 C 93 % 1027,7 hPa 0,0 l/m 10,1 km/h (2 Bft) W 270 5,3 C 4,2 C
06.01.2013 03:11 6,3 C 93 % 1027,7 hPa 0,0 l/m 4,3 km/h (1 Bft) W-NW 292 5,3 C 6,3 C
06.01.2013 03:16 6,3 C 93 % 1027,4 hPa 0,0 l/m 6,1 km/h (2 Bft) W 270 5,3 C 5,2 C
06.01.2013 03:21 6,2 C 93 % 1027,2 hPa 0,0 l/m 7,6 km/h (2 Bft) N-NW 337 5,2 C 4,6 C
06.01.2013 03:26 6,2 C 92 % 1027,2 hPa 0,0 l/m 7,9 km/h (2 Bft) W-NW 292 5,0 C 4,6 C
06.01.2013 03:31 6,2 C 92 % 1027,3 hPa 0,0 l/m 4,0 km/h (1 Bft) W-NW 292 5,0 C 6,2 C
06.01.2013 03:36 6,2 C 92 % 1027,2 hPa 0,0 l/m 4,0 km/h (1 Bft) NW 315 5,0 C 6,2 C
06.01.2013 03:41 6,2 C 92 % 1027,2 hPa 0,0 l/m 4,7 km/h (1 Bft) W-NW 292 5,0 C 5,6 C
06.01.2013 03:46 6,2 C 92 % 1027,0 hPa 0,0 l/m 6,5 km/h (2 Bft) W-NW 292 5,0 C 4,9 C
06.01.2013 03:51 6,2 C 92 % 1026,9 hPa 0,0 l/m 6,8 km/h (2 Bft) W 270 5,0 C 4,9 C
06.01.2013 03:56 6,2 C 92 % 1026,9 hPa 0,0 l/m 7,2 km/h (2 Bft) W-NW 292 5,0 C 4,8 C
06.01.2013 04:01 6,2 C 92 % 1026,9 hPa 0,0 l/m 5,8 km/h (2 Bft) NW 315 5,0 C 5,2 C
06.01.2013 04:06 6,2 C 93 % 1026,9 hPa 0,0 l/m 12,2 km/h (2 Bft) W 270 5,2 C 3,7 C
06.01.2013 04:11 6,2 C 92 % 1026,7 hPa 0,0 l/m 5,0 km/h (1 Bft) W 270 5,0 C 5,4 C
06.01.2013 04:16 6,1 C 93 % 1026,8 hPa 0,0 l/m 8,3 km/h (2 Bft) W-NW 292 5,1 C 4,4 C
06.01.2013 04:21 6,1 C 93 % 1026,8 hPa 0,0 l/m 13,0 km/h (3 Bft) NW 315 5,1 C 3,4 C
06.01.2013 04:26 6,2 C 93 % 1026,6 hPa 0,0 l/m 9,4 km/h (2 Bft) NW 315 5,2 C 4,2 C
06.01.2013 04:31 6,2 C 93 % 1026,4 hPa 0,0 l/m 11,2 km/h (2 Bft) W-NW 292 5,2 C 3,9 C
06.01.2013 04:36 6,2 C 93 % 1026,4 hPa 0,0 l/m 14,4 km/h (3 Bft) W 270 5,2 C 3,3 C
06.01.2013 04:41 6,2 C 92 % 1026,4 hPa 0,0 l/m 12,6 km/h (3 Bft) W-NW 292 5,0 C 3,6 C
06.01.2013 04:46 6,2 C 92 % 1026,3 hPa 0,0 l/m 13,7 km/h (3 Bft) NW 315 5,0 C 3,4 C
06.01.2013 04:51 6,2 C 92 % 1026,4 hPa 0,0 l/m 6,5 km/h (2 Bft) NW 315 5,0 C 4,9 C
06.01.2013 04:56 6,2 C 92 % 1026,4 hPa 0,0 l/m 14,8 km/h (3 Bft) NW 315 5,0 C 3,3 C
06.01.2013 05:01 6,2 C 92 % 1026,5 hPa 0,0 l/m 11,9 km/h (2 Bft) W-NW 292 5,0 C 3,7 C
06.01.2013 05:06 6,2 C 92 % 1026,5 hPa 0,0 l/m 7,9 km/h (2 Bft) W 270 5,0 C 4,6 C
06.01.2013 05:11 6,2 C 92 % 1026,4 hPa 0,0 l/m 6,8 km/h (2 Bft) W 270 5,0 C 4,9 C
06.01.2013 05:16 6,2 C 92 % 1026,3 hPa 0,0 l/m 2,9 km/h (1 Bft) W-NW 292 5,0 C 6,2 C
06.01.2013 05:21 6,2 C 92 % 1026,3 hPa 0,0 l/m 6,1 km/h (2 Bft) W 270 5,0 C 5,1 C
06.01.2013 05:26 6,2 C 92 % 1026,1 hPa 0,0 l/m 5,0 km/h (1 Bft) W 270 5,0 C 5,4 C
06.01.2013 05:31 6,2 C 92 % 1026,1 hPa 0,0 l/m 12,2 km/h (2 Bft) W-NW 292 5,0 C 3,7 C
06.01.2013 05:36 6,2 C 92 % 1026,2 hPa 0,0 l/m 11,2 km/h (2 Bft) W-NW 292 5,0 C 3,9 C
06.01.2013 05:41 6,2 C 92 % 1026,1 hPa 0,0 l/m 6,1 km/h (2 Bft) W-SW 247 5,0 C 5,1 C
06.01.2013 05:46 6,2 C 92 % 1026,1 hPa 0,0 l/m 15,1 km/h (3 Bft) W-NW 292 5,0 C 3,2 C
06.01.2013 05:51 6,2 C 92 % 1026,1 hPa 0,0 l/m 7,2 km/h (2 Bft) W-SW 247 5,0 C 4,8 C
06.01.2013 05:56 6,2 C 92 % 1025,7 hPa 0,0 l/m 6,1 km/h (2 Bft) W 270 5,0 C 5,1 C
06.01.2013 06:01 6,2 C 92 % 1025,6 hPa 0,0 l/m 7,6 km/h (2 Bft) W-NW 292 5,0 C 4,6 C
06.01.2013 06:06 6,2 C 92 % 1025,5 hPa 0,0 l/m 6,5 km/h (2 Bft) W-NW 292 5,0 C 4,9 C
06.01.2013 06:11 6,1 C 92 % 1025,4 hPa 0,0 l/m 4,3 km/h (1 Bft) W 270 4,9 C 6,1 C
06.01.2013 06:16 6,1 C 92 % 1025,5 hPa 0,0 l/m 10,8 km/h (2 Bft) W 270 4,9 C 3,8 C
06.01.2013 06:21 6,1 C 92 % 1025,4 hPa 0,0 l/m 6,5 km/h (2 Bft) W-NW 292 4,9 C 4,8 C
06.01.2013 06:26 6,1 C 92 % 1025,5 hPa 0,0 l/m 5,8 km/h (2 Bft) W 270 4,9 C 5,1 C
06.01.2013 06:31 6,1 C 92 % 1025,5 hPa 0,0 l/m 11,5 km/h (2 Bft) W 270 4,9 C 3,7 C
06.01.2013 06:36 6,1 C 92 % 1025,2 hPa 0,0 l/m 6,1 km/h (2 Bft) W-NW 292 4,9 C 5,0 C
06.01.2013 06:41 6,1 C 92 % 1025,3 hPa 0,0 l/m 10,1 km/h (2 Bft) W-NW 292 4,9 C 4,0 C
06.01.2013 06:46 6,1 C 92 % 1025,2 hPa 0,0 l/m 2,5 km/h (1 Bft) W 270 4,9 C 6,1 C
06.01.2013 06:51 6,1 C 92 % 1025,3 hPa 0,0 l/m 4,7 km/h (1 Bft) W-NW 292 4,9 C 5,4 C
06.01.2013 06:56 6,1 C 92 % 1025,2 hPa 0,0 l/m 6,1 km/h (2 Bft) W-NW 292 4,9 C 5,0 C
06.01.2013 07:01 6,1 C 92 % 1025,2 hPa 0,0 l/m 5,8 km/h (2 Bft) NW 315 4,9 C 5,1 C
06.01.2013 07:06 6,1 C 93 % 1025,3 hPa 0,0 l/m 5,0 km/h (1 Bft) W 270 5,1 C 5,3 C
06.01.2013 07:11 6,1 C 93 % 1025,1 hPa 0,0 l/m 7,2 km/h (2 Bft) W-NW 292 5,1 C 4,6 C
06.01.2013 07:16 6,1 C 93 % 1025,1 hPa 0,0 l/m 4,3 km/h (1 Bft) W-NW 292 5,1 C 6,1 C
06.01.2013 07:21 6,1 C 93 % 1025,2 hPa 0,0 l/m 3,2 km/h (1 Bft) W 270 5,1 C 6,1 C
06.01.2013 07:26 6,1 C 93 % 1025,2 hPa 0,0 l/m 7,6 km/h (2 Bft) W 270 5,1 C 4,5 C
06.01.2013 07:31 6,1 C 93 % 1025,1 hPa 0,0 l/m 2,2 km/h (1 Bft) W 270 5,1 C 6,1 C
06.01.2013 07:36 6,1 C 93 % 1025,2 hPa 0,0 l/m 6,1 km/h (2 Bft) W 270 5,1 C 5,0 C
06.01.2013 07:41 6,1 C 93 % 1024,9 hPa 0,0 l/m 2,9 km/h (1 Bft) W 270 5,1 C 6,1 C
06.01.2013 07:46 6,1 C 93 % 1024,9 hPa 0,0 l/m 5,4 km/h (1 Bft) NW 315 5,1 C 5,2 C
06.01.2013 07:51 6,1 C 93 % 1024,9 hPa 0,0 l/m 7,2 km/h (2 Bft) W-NW 292 5,1 C 4,6 C
06.01.2013 07:56 6,1 C 93 % 1024,8 hPa 0,0 l/m 5,0 km/h (1 Bft) W 270 5,1 C 5,3 C
06.01.2013 08:01 6,1 C 93 % 1024,9 hPa 0,0 l/m 5,0 km/h (1 Bft) W 270 5,1 C 5,3 C
06.01.2013 08:06 6,1 C 93 % 1024,7 hPa 0,0 l/m 5,8 km/h (2 Bft) W 270 5,1 C 5,1 C
06.01.2013 08:11 6,1 C 93 % 1024,5 hPa 0,0 l/m 7,6 km/h (2 Bft) W-SW 247 5,1 C 4,5 C
06.01.2013 08:16 6,1 C 93 % 1024,5 hPa 0,0 l/m 5,8 km/h (2 Bft) W-SW 247 5,1 C 5,1 C
06.01.2013 08:21 6,1 C 93 % 1024,4 hPa 0,0 l/m 9,7 km/h (2 Bft) W-SW 247 5,1 C 4,0 C
06.01.2013 08:26 6,1 C 93 % 1024,3 hPa 0,0 l/m 3,2 km/h (1 Bft) W-NW 292 5,1 C 6,1 C
06.01.2013 08:31 6,1 C 93 % 1024,3 hPa 0,0 l/m 5,8 km/h (2 Bft) W 270 5,1 C 5,1 C
06.01.2013 08:36 6,1 C 93 % 1024,1 hPa 0,0 l/m 11,2 km/h (2 Bft) SW 225 5,1 C 3,7 C
06.01.2013 08:41 6,1 C 93 % 1024,0 hPa 0,0 l/m 13,0 km/h (3 Bft) W 270 5,1 C 3,4 C
06.01.2013 08:46 6,1 C 93 % 1024,0 hPa 0,0 l/m 8,3 km/h (2 Bft) NW 315 5,1 C 4,4 C
06.01.2013 08:51 6,2 C 93 % 1023,9 hPa 0,0 l/m 7,2 km/h (2 Bft) W-SW 247 5,2 C 4,8 C
06.01.2013 08:56 6,2 C 93 % 1023,9 hPa 0,0 l/m 7,6 km/h (2 Bft) W-SW 247 5,2 C 4,6 C
06.01.2013 09:01 6,2 C 93 % 1023,8 hPa 0,0 l/m 10,1 km/h (2 Bft) W 270 5,2 C 4,1 C
06.01.2013 09:06 6,2 C 93 % 1023,8 hPa 0,0 l/m 5,0 km/h (1 Bft) W-SW 247 5,2 C 5,4 C
06.01.2013 09:11 6,2 C 93 % 1023,8 hPa 0,0 l/m 3,6 km/h (1 Bft) W 270 5,2 C 6,2 C
06.01.2013 09:16 6,2 C 93 % 1023,8 hPa 0,0 l/m 3,2 km/h (1 Bft) W-NW 292 5,2 C 6,2 C
06.01.2013 09:21 6,2 C 93 % 1023,7 hPa 0,0 l/m 0,0 km/h (0 Bft) W 270 5,2 C 6,2 C
06.01.2013 09:26 6,2 C 93 % 1023,7 hPa 0,5 l/m 5,8 km/h (2 Bft) W-NW 292 5,2 C 5,2 C
06.01.2013 09:31 6,2 C 93 % 1023,6 hPa 0,0 l/m 2,2 km/h (1 Bft) W 270 5,2 C 6,2 C
06.01.2013 09:36 6,2 C 93 % 1023,5 hPa 0,0 l/m 4,0 km/h (1 Bft) W-SW 247 5,2 C 6,2 C
06.01.2013 09:41 6,2 C 93 % 1023,3 hPa 0,0 l/m 2,2 km/h (1 Bft) W 270 5,2 C 6,2 C
06.01.2013 09:46 6,3 C 93 % 1023,3 hPa 0,0 l/m 3,6 km/h (1 Bft) SW 225 5,3 C 6,3 C
06.01.2013 09:51 6,3 C 93 % 1023,2 hPa 0,0 l/m 5,8 km/h (2 Bft) W-NW 292 5,3 C 5,3 C
06.01.2013 09:56 6,3 C 93 % 1023,3 hPa 0,0 l/m 11,9 km/h (2 Bft) W 270 5,3 C 3,8 C
06.01.2013 10:01 6,3 C 93 % 1023,3 hPa 0,0 l/m 9,4 km/h (2 Bft) W 270 5,3 C 4,3 C
06.01.2013 10:06 6,4 C 94 % 1023,2 hPa 0,0 l/m 9,7 km/h (2 Bft) W 270 5,5 C 4,4 C
06.01.2013 10:11 6,3 C 94 % 1023,3 hPa 0,0 l/m 6,8 km/h (2 Bft) W-NW 292 5,4 C 5,0 C
06.01.2013 10:16 6,4 C 94 % 1023,5 hPa 0,0 l/m 9,7 km/h (2 Bft) W-NW 292 5,5 C 4,4 C
06.01.2013 10:21 6,4 C 94 % 1023,4 hPa 0,0 l/m 12,6 km/h (3 Bft) W-NW 292 5,5 C 3,8 C
06.01.2013 10:26 6,4 C 94 % 1023,3 hPa 0,0 l/m 6,5 km/h (2 Bft) W-NW 292 5,5 C 5,2 C
06.01.2013 10:31 6,4 C 94 % 1023,2 hPa 0,0 l/m 7,9 km/h (2 Bft) W 270 5,5 C 4,8 C
06.01.2013 10:36 6,5 C 94 % 1023,1 hPa 0,0 l/m 17,3 km/h (3 Bft) W-NW 292 5,6 C 3,3 C
06.01.2013 10:41 6,5 C 94 % 1023,2 hPa 0,0 l/m 12,6 km/h (3 Bft) W-NW 292 5,6 C 4,0 C
06.01.2013 10:46 6,5 C 94 % 1023,3 hPa 0,0 l/m 9,4 km/h (2 Bft) W-NW 292 5,6 C 4,6 C
06.01.2013 10:51 6,6 C 94 % 1023,2 hPa 0,0 l/m 10,8 km/h (2 Bft) W 270 5,7 C 4,4 C
06.01.2013 10:56 6,6 C 94 % 1023,1 hPa 0,0 l/m 5,8 km/h (2 Bft) W 270 5,7 C 5,6 C
06.01.2013 11:01 6,6 C 94 % 1023,1 hPa 0,0 l/m 13,3 km/h (3 Bft) NW 315 5,7 C 4,0 C
06.01.2013 11:06 6,7 C 94 % 1023,1 hPa 0,0 l/m 9,7 km/h (2 Bft) N 360 5,8 C 4,8 C
06.01.2013 11:11 6,7 C 94 % 1023,1 hPa 0,0 l/m 13,0 km/h (3 Bft) NW 315 5,8 C 4,1 C
06.01.2013 11:16 6,7 C 94 % 1022,9 hPa 0,0 l/m 15,5 km/h (3 Bft) W-NW 292 5,8 C 3,8 C
06.01.2013 11:21 6,7 C 94 % 1022,9 hPa 0,0 l/m 7,2 km/h (2 Bft) NW 315 5,8 C 5,3 C
06.01.2013 11:26 6,8 C 94 % 1022,9 hPa 0,0 l/m 8,3 km/h (2 Bft) W-NW 292 5,9 C 5,2 C
06.01.2013 11:31 6,8 C 94 % 1022,8 hPa 0,0 l/m 14,0 km/h (3 Bft) NW 315 5,9 C 4,1 C
06.01.2013 11:36 6,9 C 94 % 1022,6 hPa 0,0 l/m 14,8 km/h (3 Bft) N-NW 337 6,0 C 4,1 C
06.01.2013 11:41 6,9 C 94 % 1022,5 hPa 0,0 l/m 13,3 km/h (3 Bft) NW 315 6,0 C 4,3 C
06.01.2013 11:46 6,9 C 94 % 1022,6 hPa 0,0 l/m 8,3 km/h (2 Bft) NW 315 6,0 C 5,3 C
06.01.2013 11:51 6,9 C 94 % 1022,6 hPa 0,0 l/m 18,0 km/h (3 Bft) NW 315 6,0 C 3,7 C
06.01.2013 11:56 6,9 C 94 % 1022,6 hPa 0,0 l/m 10,8 km/h (2 Bft) N-NW 337 6,0 C 4,8 C
06.01.2013 12:01 6,9 C 93 % 1022,6 hPa 0,0 l/m 19,1 km/h (3 Bft) N-NW 337 5,8 C 3,6 C
06.01.2013 12:06 7,0 C 93 % 1022,6 hPa 0,0 l/m 3,2 km/h (1 Bft) NW 315 5,9 C 7,0 C
06.01.2013 12:11 6,9 C 93 % 1022,6 hPa 0,0 l/m 2,9 km/h (1 Bft) NW 315 5,8 C 6,9 C
06.01.2013 12:16 7,0 C 93 % 1022,7 hPa 0,0 l/m 9,4 km/h (2 Bft) W-SW 247 5,9 C 5,2 C
06.01.2013 12:21 6,9 C 93 % 1022,6 hPa 0,5 l/m 8,6 km/h (2 Bft) N-NO 22 5,8 C 5,2 C
06.01.2013 12:26 6,9 C 93 % 1022,5 hPa 0,0 l/m 7,6 km/h (2 Bft) N 360 5,8 C 5,5 C
06.01.2013 12:31 7,0 C 93 % 1022,6 hPa 0,0 l/m 4,7 km/h (1 Bft) NW 315 5,9 C 6,5 C
06.01.2013 12:36 7,0 C 93 % 1022,7 hPa 0,0 l/m 5,8 km/h (2 Bft) N-NW 337 5,9 C 6,1 C
06.01.2013 12:41 7,0 C 94 % 1022,6 hPa 0,0 l/m 1,4 km/h (1 Bft) N-NW 337 6,1 C 7,0 C
06.01.2013 12:46 7,1 C 94 % 1022,5 hPa 0,0 l/m 4,7 km/h (1 Bft) NW 315 6,2 C 6,6 C
06.01.2013 12:51 7,1 C 94 % 1022,5 hPa 0,0 l/m 10,8 km/h (2 Bft) NW 315 6,2 C 5,0 C
06.01.2013 12:56 7,1 C 94 % 1022,5 hPa 0,0 l/m 8,6 km/h (2 Bft) NW 315 6,2 C 5,5 C
06.01.2013 13:01 7,2 C 93 % 1022,5 hPa 0,0 l/m 4,0 km/h (1 Bft) NW 315 6,1 C 7,2 C
06.01.2013 13:06 7,2 C 93 % 1022,5 hPa 0,0 l/m 4,7 km/h (1 Bft) N 360 6,1 C 6,7 C
06.01.2013 13:11 7,2 C 93 % 1022,5 hPa 0,0 l/m 2,9 km/h (1 Bft) N 360 6,1 C 7,2 C
06.01.2013 13:16 7,2 C 93 % 1022,5 hPa 0,0 l/m 8,3 km/h (2 Bft) NW 315 6,1 C 5,6 C
06.01.2013 13:21 7,2 C 93 % 1022,5 hPa 0,0 l/m 13,0 km/h (3 Bft) NW 315 6,1 C 4,8 C
06.01.2013 13:26 7,2 C 93 % 1022,4 hPa 0,0 l/m 12,2 km/h (2 Bft) N-NW 337 6,1 C 4,9 C
06.01.2013 13:31 7,3 C 93 % 1022,3 hPa 0,0 l/m 12,2 km/h (2 Bft) W 270 6,2 C 5,0 C
06.01.2013 13:36 7,3 C 93 % 1022,5 hPa 0,0 l/m 4,3 km/h (1 Bft) W-NW 292 6,2 C 7,3 C
06.01.2013 13:41 7,3 C 93 % 1022,3 hPa 0,0 l/m 9,0 km/h (2 Bft) N-NW 337 6,2 C 5,6 C
06.01.2013 13:46 7,3 C 93 % 1022,4 hPa 0,0 l/m 13,0 km/h (3 Bft) NW 315 6,2 C 4,9 C
06.01.2013 13:51 7,4 C 93 % 1022,3 hPa 0,0 l/m 9,4 km/h (2 Bft) NW 315 6,3 C 5,6 C
06.01.2013 13:56 7,4 C 93 % 1022,5 hPa 0,0 l/m 3,2 km/h (1 Bft) W-NW 292 6,3 C 7,4 C
06.01.2013 14:01 7,4 C 93 % 1022,4 hPa 0,0 l/m 17,3 km/h (3 Bft) W-NW 292 6,3 C 4,4 C
06.01.2013 14:06 7,4 C 93 % 1022,6 hPa 0,0 l/m 23,0 km/h (4 Bft) NW 315 6,3 C 3,8 C
06.01.2013 14:11 7,5 C 93 % 1022,5 hPa 0,0 l/m 6,1 km/h (2 Bft) W-NW 292 6,4 C 6,6 C
06.01.2013 14:16 7,6 C 93 % 1022,6 hPa 0,0 l/m 6,1 km/h (2 Bft) W-NW 292 6,5 C 6,7 C
06.01.2013 14:21 7,5 C 93 % 1022,5 hPa 0,0 l/m 3,6 km/h (1 Bft) NW 315 6,4 C 7,5 C
06.01.2013 14:26 7,6 C 93 % 1022,5 hPa 0,0 l/m 3,2 km/h (1 Bft) W-NW 292 6,5 C 7,6 C
06.01.2013 14:31 7,6 C 93 % 1022,5 hPa 0,0 l/m 2,9 km/h (1 Bft) W-NW 292 6,5 C 7,6 C
06.01.2013 14:36 7,6 C 93 % 1022,6 hPa 0,0 l/m 5,8 km/h (2 Bft) NW 315 6,5 C 6,8 C
06.01.2013 14:41 7,6 C 93 % 1022,5 hPa 0,0 l/m 3,6 km/h (1 Bft) W-NW 292 6,5 C 7,6 C
06.01.2013 14:46 7,6 C 93 % 1022,5 hPa 0,0 l/m 5,8 km/h (2 Bft) W-NW 292 6,5 C 6,8 C
06.01.2013 14:51 7,6 C 93 % 1022,5 hPa 0,0 l/m 7,9 km/h (2 Bft) NW 315 6,5 C 6,2 C
06.01.2013 14:56 7,6 C 93 % 1022,5 hPa 0,0 l/m 11,2 km/h (2 Bft) W-NW 292 6,5 C 5,5 C
06.01.2013 15:01 7,6 C 93 % 1022,5 hPa 0,0 l/m 6,1 km/h (2 Bft) NW 315 6,5 C 6,7 C
06.01.2013 15:06 7,6 C 93 % 1022,5 hPa 0,0 l/m 4,0 km/h (1 Bft) NW 315 6,5 C 7,6 C
06.01.2013 15:11 7,6 C 93 % 1022,5 hPa 0,0 l/m 11,2 km/h (2 Bft) NW 315 6,5 C 5,5 C
06.01.2013 15:16 7,6 C 93 % 1022,4 hPa 0,0 l/m 7,2 km/h (2 Bft) NW 315 6,5 C 6,4 C
06.01.2013 15:21 7,6 C 93 % 1022,4 hPa 0,0 l/m 10,8 km/h (2 Bft) NW 315 6,5 C 5,6 C
06.01.2013 15:26 7,6 C 93 % 1022,3 hPa 0,0 l/m 2,9 km/h (1 Bft) NW 315 6,5 C 7,6 C
06.01.2013 15:31 7,5 C 92 % 1022,3 hPa 0,0 l/m 7,6 km/h (2 Bft) NW 315 6,3 C 6,2 C
06.01.2013 15:36 7,5 C 92 % 1022,4 hPa 0,0 l/m 5,4 km/h (1 Bft) W-NW 292 6,3 C 6,8 C
06.01.2013 15:41 7,5 C 92 % 1022,4 hPa 0,0 l/m 10,8 km/h (2 Bft) NW 315 6,3 C 5,5 C
06.01.2013 15:46 7,5 C 92 % 1022,4 hPa 0,0 l/m 6,5 km/h (2 Bft) N-NW 337 6,3 C 6,5 C
06.01.2013 15:51 7,6 C 93 % 1022,2 hPa 0,0 l/m 6,5 km/h (2 Bft) W-NW 292 6,5 C 6,6 C
06.01.2013 15:56 7,6 C 93 % 1022,2 hPa 0,0 l/m 5,0 km/h (1 Bft) W-NW 292 6,5 C 7,0 C
06.01.2013 16:01 7,6 C 93 % 1022,2 hPa 0,0 l/m 6,8 km/h (2 Bft) NW 315 6,5 C 6,5 C
06.01.2013 16:06 7,6 C 93 % 1022,2 hPa 0,0 l/m 4,7 km/h (1 Bft) NW 315 6,5 C 7,1 C
06.01.2013 16:11 7,6 C 93 % 1022,2 hPa 0,0 l/m 5,8 km/h (2 Bft) W-NW 292 6,5 C 6,8 C
06.01.2013 16:16 7,6 C 93 % 1022,2 hPa 0,0 l/m 6,1 km/h (2 Bft) NW 315 6,5 C 6,7 C
06.01.2013 16:21 7,6 C 93 % 1022,2 hPa 0,0 l/m 8,6 km/h (2 Bft) N 360 6,5 C 6,1 C
06.01.2013 16:26 7,6 C 93 % 1022,2 hPa 0,0 l/m 9,4 km/h (2 Bft) N-NW 337 6,5 C 5,9 C
06.01.2013 16:31 7,6 C 93 % 1022,2 hPa 0,0 l/m 8,3 km/h (2 Bft) N-NW 337 6,5 C 6,1 C
06.01.2013 16:36 7,6 C 93 % 1022,3 hPa 0,0 l/m 7,2 km/h (2 Bft) N 360 6,5 C 6,4 C
06.01.2013 16:41 7,6 C 93 % 1022,4 hPa 0,0 l/m 6,1 km/h (2 Bft) N-NO 22 6,5 C 6,7 C
06.01.2013 16:46 7,6 C 93 % 1022,5 hPa 0,0 l/m 6,5 km/h (2 Bft) N-NW 337 6,5 C 6,6 C
06.01.2013 16:51 7,6 C 93 % 1022,7 hPa 0,0 l/m 10,8 km/h (2 Bft) N-NW 337 6,5 C 5,6 C
06.01.2013 16:56 7,6 C 93 % 1022,6 hPa 0,0 l/m 15,8 km/h (3 Bft) W-NW 292 6,5 C 4,8 C
06.01.2013 17:01 7,6 C 93 % 1022,6 hPa 0,0 l/m 6,5 km/h (2 Bft) N-NO 22 6,5 C 6,6 C
06.01.2013 17:06 7,6 C 93 % 1022,7 hPa 0,0 l/m 6,1 km/h (2 Bft) O-NO 67 6,5 C 6,7 C
06.01.2013 17:11 7,6 C 93 % 1022,7 hPa 0,0 l/m 5,4 km/h (1 Bft) N 360 6,5 C 6,9 C
06.01.2013 17:16 7,6 C 93 % 1022,8 hPa 0,0 l/m 15,1 km/h (3 Bft) N 360 6,5 C 4,9 C
06.01.2013 17:21 7,6 C 93 % 1022,8 hPa 0,0 l/m 9,0 km/h (2 Bft) NO 45 6,5 C 6,0 C
06.01.2013 17:26 7,6 C 93 % 1022,8 hPa 0,0 l/m 4,3 km/h (1 Bft) N 360 6,5 C 7,6 C
06.01.2013 17:31 7,6 C 93 % 1022,8 hPa 0,0 l/m 5,0 km/h (1 Bft) N-NW 337 6,5 C 7,0 C
06.01.2013 17:36 7,6 C 93 % 1022,9 hPa 0,0 l/m 10,4 km/h (2 Bft) NW 315 6,5 C 5,7 C
06.01.2013 17:41 7,6 C 93 % 1023,0 hPa 0,0 l/m 6,8 km/h (2 Bft) NW 315 6,5 C 6,5 C
06.01.2013 17:46 7,6 C 93 % 1023,1 hPa 0,0 l/m 6,5 km/h (2 Bft) N-NW 337 6,5 C 6,6 C
06.01.2013 17:51 7,6 C 93 % 1022,9 hPa 0,0 l/m 6,8 km/h (2 Bft) NW 315 6,5 C 6,5 C
06.01.2013 17:56 7,6 C 93 % 1023,0 hPa 0,0 l/m 10,1 km/h (2 Bft) N-NW 337 6,5 C 5,7 C
06.01.2013 18:01 7,6 C 93 % 1023,0 hPa 0,0 l/m 7,6 km/h (2 Bft) NW 315 6,5 C 6,3 C
06.01.2013 18:06 7,6 C 93 % 1023,0 hPa 0,0 l/m 9,7 km/h (2 Bft) W-NW 292 6,5 C 5,8 C
06.01.2013 18:11 7,6 C 93 % 1023,2 hPa 0,0 l/m 8,3 km/h (2 Bft) NW 315 6,5 C 6,1 C
06.01.2013 18:16 7,6 C 93 % 1023,2 hPa 0,0 l/m 4,0 km/h (1 Bft) N-NO 22 6,5 C 7,6 C
06.01.2013 18:21 7,6 C 93 % 1023,0 hPa 0,0 l/m 7,2 km/h (2 Bft) N-NW 337 6,5 C 6,4 C
06.01.2013 18:26 7,6 C 93 % 1023,2 hPa 0,0 l/m 7,6 km/h (2 Bft) N-NO 22 6,5 C 6,3 C
06.01.2013 18:31 7,6 C 93 % 1023,2 hPa 0,0 l/m 4,0 km/h (1 Bft) O-NO 67 6,5 C 7,6 C
06.01.2013 18:36 7,6 C 93 % 1023,2 hPa 0,0 l/m 4,0 km/h (1 Bft) N 360 6,5 C 7,6 C
06.01.2013 18:41 7,6 C 93 % 1023,4 hPa 0,0 l/m 4,7 km/h (1 Bft) NW 315 6,5 C 7,1 C
06.01.2013 18:46 7,6 C 93 % 1023,2 hPa 0,0 l/m 2,2 km/h (1 Bft) W-NW 292 6,5 C 7,6 C
06.01.2013 18:51 7,6 C 93 % 1023,3 hPa 0,0 l/m 8,6 km/h (2 Bft) NW 315 6,5 C 6,1 C
06.01.2013 18:56 7,6 C 93 % 1023,3 hPa 0,0 l/m 8,3 km/h (2 Bft) N-NW 337 6,5 C 6,1 C
06.01.2013 19:01 7,6 C 93 % 1023,4 hPa 0,0 l/m 4,0 km/h (1 Bft) NW 315 6,5 C 7,6 C
06.01.2013 19:06 7,6 C 93 % 1023,5 hPa 0,0 l/m 4,3 km/h (1 Bft) N-NW 337 6,5 C 7,6 C
06.01.2013 19:11 7,5 C 93 % 1023,4 hPa 0,0 l/m 3,6 km/h (1 Bft) W-NW 292 6,4 C 7,5 C
06.01.2013 19:16 7,5 C 93 % 1023,3 hPa 0,0 l/m 6,5 km/h (2 Bft) NW 315 6,4 C 6,5 C
06.01.2013 19:21 7,5 C 93 % 1023,4 hPa 0,0 l/m 2,2 km/h (1 Bft) N-NW 337 6,4 C 7,5 C
06.01.2013 19:26 7,5 C 93 % 1023,4 hPa 0,0 l/m 0,0 km/h (0 Bft) N-NW 337 6,4 C 7,5 C
06.01.2013 19:31 7,5 C 93 % 1023,4 hPa 0,0 l/m 6,1 km/h (2 Bft) NW 315 6,4 C 6,6 C
06.01.2013 19:36 7,5 C 93 % 1023,4 hPa 0,0 l/m 4,0 km/h (1 Bft) N-NW 337 6,4 C 7,5 C
06.01.2013 19:41 7,5 C 93 % 1023,7 hPa 0,0 l/m 7,6 km/h (2 Bft) N-NW 337 6,4 C 6,2 C
06.01.2013 19:46 7,5 C 93 % 1023,6 hPa 0,0 l/m 5,0 km/h (1 Bft) NW 315 6,4 C 6,9 C
06.01.2013 19:51 7,5 C 93 % 1023,7 hPa 0,0 l/m 3,6 km/h (1 Bft) W 270 6,4 C 7,5 C
06.01.2013 19:56 7,5 C 93 % 1023,7 hPa 0,5 l/m 4,0 km/h (1 Bft) W-SW 247 6,4 C 7,5 C
06.01.2013 20:01 7,5 C 93 % 1023,7 hPa 0,0 l/m 5,4 km/h (1 Bft) NW 315 6,4 C 6,8 C
06.01.2013 20:06 7,5 C 93 % 1023,7 hPa 0,0 l/m 10,4 km/h (2 Bft) N-NW 337 6,4 C 5,6 C
06.01.2013 20:11 7,5 C 94 % 1023,9 hPa 0,0 l/m 7,6 km/h (2 Bft) N 360 6,6 C 6,2 C
06.01.2013 20:16 7,5 C 94 % 1023,8 hPa 0,0 l/m 13,7 km/h (3 Bft) NW 315 6,6 C 5,0 C
06.01.2013 20:21 7,5 C 94 % 1023,7 hPa 0,0 l/m 4,7 km/h (1 Bft) N-NW 337 6,6 C 7,0 C
06.01.2013 20:26 7,5 C 94 % 1023,8 hPa 0,0 l/m 6,1 km/h (2 Bft) N 360 6,6 C 6,6 C
06.01.2013 20:31 7,5 C 94 % 1023,8 hPa 0,0 l/m 5,4 km/h (1 Bft) N-NW 337 6,6 C 6,8 C
06.01.2013 20:36 7,5 C 94 % 1023,9 hPa 0,0 l/m 2,9 km/h (1 Bft) NW 315 6,6 C 7,5 C
06.01.2013 20:41 7,4 C 94 % 1023,9 hPa 0,0 l/m 9,0 km/h (2 Bft) N-NW 337 6,5 C 5,7 C
06.01.2013 20:46 7,4 C 94 % 1024,0 hPa 0,0 l/m 2,5 km/h (1 Bft) N-NW 337 6,5 C 7,4 C
06.01.2013 20:51 7,4 C 94 % 1024,1 hPa 0,0 l/m 3,6 km/h (1 Bft) NW 315 6,5 C 7,4 C
06.01.2013 20:56 7,4 C 94 % 1024,1 hPa 0,0 l/m 6,1 km/h (2 Bft) N-NW 337 6,5 C 6,5 C
06.01.2013 21:01 7,4 C 94 % 1024,1 hPa 0,0 l/m 8,3 km/h (2 Bft) W-NW 292 6,5 C 5,9 C
06.01.2013 21:06 7,4 C 94 % 1024,3 hPa 0,0 l/m 2,5 km/h (1 Bft) NW 315 6,5 C 7,4 C
06.01.2013 21:11 7,4 C 94 % 1024,3 hPa 0,0 l/m 8,3 km/h (2 Bft) N-NW 337 6,5 C 5,9 C
06.01.2013 21:16 7,4 C 94 % 1024,2 hPa 0,0 l/m 8,3 km/h (2 Bft) N-NW 337 6,5 C 5,9 C
06.01.2013 21:21 7,4 C 94 % 1024,3 hPa 0,0 l/m 6,8 km/h (2 Bft) NW 315 6,5 C 6,3 C
06.01.2013 21:26 7,4 C 94 % 1024,4 hPa 0,0 l/m 9,4 km/h (2 Bft) N-NW 337 6,5 C 5,6 C
06.01.2013 21:31 7,4 C 94 % 1024,6 hPa 0,0 l/m 2,9 km/h (1 Bft) NW 315 6,5 C 7,4 C
06.01.2013 21:36 7,4 C 94 % 1024,5 hPa 0,0 l/m 5,0 km/h (1 Bft) N-NW 337 6,5 C 6,8 C
06.01.2013 21:41 7,4 C 94 % 1024,5 hPa 0,0 l/m 4,0 km/h (1 Bft) N-NO 22 6,5 C 7,4 C
06.01.2013 21:46 7,4 C 94 % 1024,5 hPa 0,0 l/m 2,9 km/h (1 Bft) N-NO 22 6,5 C 7,4 C
06.01.2013 21:51 7,4 C 94 % 1024,5 hPa 0,0 l/m 6,5 km/h (2 Bft) N-NO 22 6,5 C 6,3 C
06.01.2013 21:56 7,4 C 94 % 1024,5 hPa 0,0 l/m 3,2 km/h (1 Bft) N-NW 337 6,5 C 7,4 C
06.01.2013 22:01 7,4 C 94 % 1024,5 hPa 0,0 l/m 4,0 km/h (1 Bft) W-NW 292 6,5 C 7,4 C
06.01.2013 22:06 7,4 C 94 % 1024,6 hPa 0,0 l/m 3,2 km/h (1 Bft) N-NW 337 6,5 C 7,4 C
06.01.2013 22:11 7,4 C 94 % 1024,6 hPa 0,0 l/m 4,7 km/h (1 Bft) N-NW 337 6,5 C 6,9 C
06.01.2013 22:16 7,4 C 94 % 1024,8 hPa 0,0 l/m 2,9 km/h (1 Bft) NW 315 6,5 C 7,4 C
06.01.2013 22:21 7,3 C 94 % 1024,6 hPa 0,0 l/m 9,4 km/h (2 Bft) NW 315 6,4 C 5,5 C
06.01.2013 22:26 7,3 C 94 % 1024,9 hPa 0,0 l/m 5,4 km/h (1 Bft) N 360 6,4 C 6,6 C
06.01.2013 22:31 7,3 C 94 % 1025,0 hPa 0,0 l/m 2,9 km/h (1 Bft) N 360 6,4 C 7,3 C
06.01.2013 22:36 7,3 C 94 % 1024,9 hPa 0,0 l/m 3,6 km/h (1 Bft) N-NO 22 6,4 C 7,3 C
06.01.2013 22:41 7,3 C 94 % 1025,0 hPa 0,0 l/m 2,2 km/h (1 Bft) N-NW 337 6,4 C 7,3 C
06.01.2013 22:46 7,3 C 94 % 1024,9 hPa 0,0 l/m 3,2 km/h (1 Bft) NO 45 6,4 C 7,3 C
06.01.2013 22:51 7,2 C 94 % 1025,1 hPa 0,0 l/m 6,1 km/h (2 Bft) N 360 6,3 C 6,2 C
06.01.2013 22:56 7,2 C 94 % 1025,1 hPa 0,0 l/m 2,9 km/h (1 Bft) NW 315 6,3 C 7,2 C
06.01.2013 23:01 7,2 C 94 % 1025,2 hPa 0,0 l/m 4,0 km/h (1 Bft) N 360 6,3 C 7,2 C
06.01.2013 23:06 7,2 C 94 % 1025,0 hPa 0,0 l/m 5,8 km/h (2 Bft) NO 45 6,3 C 6,3 C
06.01.2013 23:11 7,2 C 94 % 1025,1 hPa 0,0 l/m 6,8 km/h (2 Bft) N-NW 337 6,3 C 6,0 C
06.01.2013 23:16 7,2 C 94 % 1025,2 hPa 0,0 l/m 4,0 km/h (1 Bft) N-NO 22 6,3 C 7,2 C
06.01.2013 23:21 7,2 C 94 % 1025,2 hPa 0,5 l/m 4,3 km/h (1 Bft) N-NO 22 6,3 C 7,2 C
06.01.2013 23:26 7,2 C 94 % 1025,3 hPa 0,0 l/m 4,0 km/h (1 Bft) N-NO 22 6,3 C 7,2 C
06.01.2013 23:31 7,1 C 94 % 1025,3 hPa 0,0 l/m 5,0 km/h (1 Bft) N-NW 337 6,2 C 6,5 C
06.01.2013 23:36 7,1 C 94 % 1025,2 hPa 0,0 l/m 2,9 km/h (1 Bft) N-NO 22 6,2 C 7,1 C
06.01.2013 23:41 7,1 C 94 % 1025,3 hPa 0,0 l/m 6,1 km/h (2 Bft) N 360 6,2 C 6,1 C
06.01.2013 23:46 7,1 C 94 % 1025,4 hPa 0,0 l/m 3,2 km/h (1 Bft) N 360 6,2 C 7,1 C
06.01.2013 23:51 7,1 C 94 % 1025,4 hPa 0,0 l/m 3,6 km/h (1 Bft) NO 45 6,2 C 7,1 C
06.01.2013 23:56 7,1 C 94 % 1025,6 hPa 0,0 l/m 8,3 km/h (2 Bft) N 360 6,2 C 5,5 C
_ Min-Zeit 04:16 03:26 15:51 - 09:21 - - 06:11 02:06
Minimum _ 6,1 C 92 % 1022,2 hPa - 0,0 km/h (0 Bft) - - 4,9 C 2,9 C
_ Max-Zeit 14:16 00:01 00:01 00:06 14:06 - - 20:11 14:26
Maximum _ 7,6 C 94 % 1028,7 hPa 0,5 l/m 23,0 km/h
NW (4 Bft)
- - 6,6 C 7,6 C
Durchschnitt _ 6,9 C 93 % 1024,5 hPa #2,6 l/m 7,3 km/h (2 Bft) NW - 5,9 C 5,7 C
(c) by David Heller